Time;durP1;ratioP1;P1;durP2;ratioP2;P2;SDS_P1;SDS_P2;PMS_P1;PMS_P2;Temp;Humidity;BMP_temperature;BMP_pressure;BME280_temperature;BME280_humidity;BME280_pressure;Samples;Min_cycle;Max_cycle;Signal;HPM_P1;HPM_P2
2023/06/03 00:00:56;;;;;;;5.22;1.40;;;14.20;96.10;;;;;;4877032;29;20436;-70
2023/06/03 00:03:22;;;;;;;4.95;1.40;;;14.20;96.30;;;;;;4884411;29;20704;-69
2023/06/03 00:05:48;;;;;;;5.55;1.33;;;14.10;96.30;;;;;;4869246;29;20502;-70
2023/06/03 00:08:15;;;;;;;2.97;1.50;;;14.00;96.40;;;;;;4870820;29;20416;-70
2023/06/03 00:10:41;;;;;;;4.65;1.67;;;14.00;96.40;;;;;;4898531;29;20051;-69
2023/06/03 00:13:08;;;;;;;5.43;1.88;;;13.90;96.60;;;;;;4906339;28;20482;-70
2023/06/03 00:15:34;;;;;;;10.43;2.85;;;13.90;96.60;;;;;;4902090;29;20063;-69
2023/06/03 00:18:02;;;;;;;3.75;1.55;;;13.80;96.80;;;;;;4899785;29;20040;-70
2023/06/03 00:20:29;;;;;;;5.82;2.17;;;13.80;96.80;;;;;;4894572;29;20043;-69
2023/06/03 00:22:55;;;;;;;6.15;2.33;;;13.70;96.80;;;;;;4901444;29;20365;-69
2023/06/03 00:25:21;;;;;;;7.75;2.50;;;13.60;96.90;;;;;;4900809;29;20042;-70
2023/06/03 00:27:49;;;;;;;6.38;2.53;;;13.60;97.10;;;;;;4900365;29;20380;-70
2023/06/03 00:30:15;;;;;;;5.13;2.05;;;13.60;97.20;;;;;;4900272;29;20043;-70
2023/06/03 00:32:43;;;;;;;4.85;2.05;;;13.50;97.30;;;;;;4907772;29;20395;-70
2023/06/03 00:35:09;;;;;;;5.88;1.98;;;13.50;97.50;;;;;;4902935;29;20502;-70
2023/06/03 00:37:35;;;;;;;4.03;2.15;;;13.40;97.70;;;;;;4900581;29;20036;-70
2023/06/03 00:40:02;;;;;;;3.90;2.17;;;13.40;97.60;;;;;;4893482;29;20051;-69
2023/06/03 00:42:29;;;;;;;4.07;1.50;;;13.40;97.70;;;;;;4898530;29;20510;-70
2023/06/03 00:44:55;;;;;;;6.50;1.63;;;13.40;97.70;;;;;;4900542;29;20402;-71
2023/06/03 00:47:22;;;;;;;4.00;2.05;;;13.30;97.70;;;;;;4900395;29;20031;-70
2023/06/03 00:49:48;;;;;;;3.08;1.73;;;13.30;97.90;;;;;;4895110;29;20160;-70
2023/06/03 00:52:16;;;;;;;4.93;2.35;;;13.30;97.90;;;;;;4904537;29;20487;-70
2023/06/03 00:54:44;;;;;;;3.17;1.77;;;13.20;98.10;;;;;;4903117;29;20039;-69
2023/06/03 00:57:11;;;;;;;6.05;1.88;;;13.20;98.20;;;;;;4886717;29;20063;-70
2023/06/03 00:59:37;;;;;;;5.95;2.92;;;13.20;98.20;;;;;;4863774;29;20051;-70
2023/06/03 01:02:04;;;;;;;2.67;1.75;;;13.20;98.30;;;;;;4881218;29;20151;-70
2023/06/03 01:04:30;;;;;;;6.13;2.00;;;13.20;98.40;;;;;;4897407;29;20059;-69
2023/06/03 01:07:15;;;;;;;3.38;1.60;;;13.10;98.40;;;;;;4899108;29;20028;-70
2023/06/03 01:10:18;;;;;;;5.63;1.50;;;13.10;98.40;;;;;;4877724;29;20430;-69
2023/06/03 01:13:07;;;;;;;4.00;1.88;;;13.10;98.40;;;;;;4887655;28;20043;-70
2023/06/03 01:15:36;;;;;;;4.85;2.05;;;13.10;98.40;;;;;;4891119;29;20050;-70
2023/06/03 01:18:05;;;;;;;4.63;1.70;;;13.10;98.50;;;;;;4905001;29;20031;-71
2023/06/03 01:20:33;;;;;;;4.00;1.50;;;13.10;98.40;;;;;;4892706;29;20042;-70
2023/06/03 01:23:19;;;;;;;3.30;1.15;;;13.10;98.30;;;;;;4869974;29;20043;-69
2023/06/03 01:25:46;;;;;;;2.53;1.20;;;13.00;98.40;;;;;;4898310;29;20917;-69
2023/06/03 01:28:12;;;;;;;5.70;1.67;;;13.00;98.40;;;;;;4867928;29;21646;-69
2023/06/03 01:30:39;;;;;;;7.05;2.33;;;13.00;98.50;;;;;;4890152;29;20051;-69
2023/06/03 01:33:06;;;;;;;3.60;1.80;;;13.00;98.50;;;;;;4899840;29;20047;-69
2023/06/03 01:35:34;;;;;;;4.35;1.40;;;13.00;98.40;;;;;;4884512;29;20028;-70
2023/06/03 01:38:01;;;;;;;6.85;1.88;;;13.00;98.50;;;;;;4888698;29;20042;-69
2023/06/03 01:40:28;;;;;;;5.32;1.50;;;13.00;98.50;;;;;;4894773;29;20499;-70
2023/06/03 01:42:54;;;;;;;4.55;1.58;;;13.00;98.50;;;;;;4899893;29;20039;-70
2023/06/03 01:45:21;;;;;;;6.22;1.48;;;13.00;98.40;;;;;;4883358;29;20031;-71
2023/06/03 01:47:49;;;;;;;4.85;1.52;;;12.90;98.40;;;;;;4897910;29;20039;-70
2023/06/03 01:50:17;;;;;;;4.80;1.63;;;12.90;98.50;;;;;;4874612;29;20035;-70
2023/06/03 01:52:44;;;;;;;4.00;1.33;;;12.90;98.40;;;;;;4884681;29;20483;-69
2023/06/03 01:55:10;;;;;;;4.70;1.58;;;12.90;98.40;;;;;;4885668;29;20062;-70
2023/06/03 01:57:37;;;;;;;2.63;1.20;;;12.90;98.30;;;;;;4873902;29;20040;-70
2023/06/03 02:00:07;;;;;;;3.38;1.17;;;12.90;98.30;;;;;;4897257;29;20114;-69
2023/06/03 02:02:40;;;;;;;3.03;1.10;;;12.80;98.20;;;;;;4902495;29;20574;-70
2023/06/03 02:05:07;;;;;;;3.45;1.00;;;12.90;98.20;;;;;;4898662;29;20036;-69
2023/06/03 02:07:33;;;;;;;5.55;1.63;;;12.80;98.20;;;;;;4873486;29;20070;-70
2023/06/03 02:10:00;;;;;;;3.80;1.02;;;12.80;98.20;;;;;;4876835;29;20391;-70
2023/06/03 02:12:27;;;;;;;4.45;1.38;;;12.70;98.10;;;;;;4901154;29;20399;-70
2023/06/03 02:14:53;;;;;;;3.75;1.15;;;12.70;98.10;;;;;;4901380;29;21047;-69
2023/06/03 02:17:22;;;;;;;5.47;1.63;;;12.70;98.10;;;;;;4871003;29;20106;-70
2023/06/03 02:19:48;;;;;;;2.47;0.98;;;12.70;98.00;;;;;;4883156;29;21548;-70
2023/06/03 02:22:15;;;;;;;6.32;1.48;;;12.70;97.80;;;;;;4888167;29;20106;-69
2023/06/03 02:24:41;;;;;;;1.58;0.77;;;12.70;97.70;;;;;;4905118;29;20047;-69
2023/06/03 02:27:08;;;;;;;2.75;0.95;;;12.80;97.60;;;;;;4903084;29;20052;-69
2023/06/03 02:29:36;;;;;;;5.70;1.00;;;12.70;97.60;;;;;;4880921;29;21052;-70
2023/06/03 02:32:02;;;;;;;3.42;1.15;;;12.70;97.60;;;;;;4900018;29;20047;-69
2023/06/03 02:34:29;;;;;;;3.08;0.90;;;12.60;97.50;;;;;;4902164;29;20039;-70
2023/06/03 02:36:55;;;;;;;1.95;0.75;;;12.60;97.50;;;;;;4887730;29;20044;-70
2023/06/03 02:39:22;;;;;;;3.33;0.80;;;12.60;97.50;;;;;;4885824;29;20372;-69
2023/06/03 02:41:48;;;;;;;4.47;0.80;;;12.50;97.50;;;;;;4887549;29;20050;-69
2023/06/03 02:44:18;;;;;;;2.10;0.75;;;12.50;97.50;;;;;;4909155;29;20036;-70
2023/06/03 02:46:45;;;;;;;3.72;0.90;;;12.40;97.50;;;;;;4904636;29;20043;-69
2023/06/03 02:49:12;;;;;;;1.80;0.65;;;12.40;97.50;;;;;;4884388;29;20046;-69
2023/06/03 02:51:40;;;;;;;4.13;0.90;;;12.30;97.60;;;;;;4881288;29;20293;-71
2023/06/03 02:54:07;;;;;;;4.38;1.10;;;12.30;97.90;;;;;;4885442;29;20035;-70
2023/06/03 02:56:33;;;;;;;4.35;1.00;;;12.20;97.70;;;;;;4902988;29;20501;-70
2023/06/03 02:59:00;;;;;;;2.38;0.90;;;12.10;97.70;;;;;;4903311;29;20044;-71
2023/06/03 03:01:27;;;;;;;2.53;1.00;;;12.10;97.80;;;;;;4901868;28;20034;-71
2023/06/03 03:03:54;;;;;;;3.03;1.10;;;12.10;97.90;;;;;;4890857;29;20046;-69
2023/06/03 03:06:21;;;;;;;2.88;0.80;;;12.00;97.90;;;;;;4890331;29;20598;-70
2023/06/03 03:08:52;;;;;;;3.92;0.98;;;12.00;97.90;;;;;;4885066;29;20043;-70
2023/06/03 03:11:22;;;;;;;2.65;1.13;;;12.00;98.00;;;;;;4895923;29;20035;-69
2023/06/03 03:13:48;;;;;;;2.30;0.75;;;11.90;98.00;;;;;;4886016;29;20028;-69
2023/06/03 03:16:17;;;;;;;2.53;0.70;;;11.80;98.00;;;;;;4869654;29;20040;-69
2023/06/03 03:18:46;;;;;;;3.13;0.90;;;11.80;98.10;;;;;;4898704;29;20035;-69
2023/06/03 03:21:13;;;;;;;3.10;0.80;;;11.80;98.10;;;;;;4850480;29;20098;-70
2023/06/03 03:23:40;;;;;;;1.50;0.70;;;11.70;98.20;;;;;;4873114;29;20621;-70
2023/06/03 03:26:08;;;;;;;3.55;1.48;;;11.70;98.20;;;;;;4904682;29;20047;-70
2023/06/03 03:28:36;;;;;;;2.03;0.75;;;11.70;98.30;;;;;;4902906;29;20362;-69
2023/06/03 03:31:04;;;;;;;2.42;0.80;;;11.70;98.30;;;;;;4898516;29;20066;-70
2023/06/03 03:33:31;;;;;;;1.50;0.70;;;11.70;98.30;;;;;;4869990;29;20036;-70
2023/06/03 03:36:08;;;;;;;1.42;0.77;;;11.60;98.20;;;;;;4885116;29;20643;-69
2023/06/03 03:38:37;;;;;;;3.35;0.90;;;11.60;98.20;;;;;;4900273;29;20039;-70
2023/06/03 03:41:07;;;;;;;2.65;0.85;;;11.60;98.20;;;;;;4878369;29;20051;-70
2023/06/03 03:43:35;;;;;;;1.70;0.70;;;11.60;98.30;;;;;;4888437;29;20039;-69
2023/06/03 03:46:08;;;;;;;5.25;1.05;;;11.60;98.20;;;;;;4890770;29;20036;-70
2023/06/03 03:48:35;;;;;;;2.72;0.88;;;11.60;98.30;;;;;;4906975;29;20047;-71
2023/06/03 03:51:01;;;;;;;3.13;0.82;;;11.60;98.20;;;;;;4882980;29;20121;-70
2023/06/03 03:53:36;;;;;;;2.90;0.98;;;11.60;98.20;;;;;;4901478;29;20056;-70
2023/06/03 03:56:07;;;;;;;3.53;0.98;;;11.60;98.20;;;;;;4885350;29;20051;-70
2023/06/03 03:58:42;;;;;;;1.13;0.60;;;11.60;98.10;;;;;;4899437;29;20039;-70
2023/06/03 04:01:18;;;;;;;1.35;0.70;;;11.60;98.10;;;;;;4862182;29;20403;-71
2023/06/03 04:03:48;;;;;;;2.42;0.70;;;11.60;98.00;;;;;;4885294;29;20866;-71
2023/06/03 04:06:38;;;;;;;2.10;0.75;;;11.60;98.00;;;;;;4888205;29;20028;-69
2023/06/03 04:09:07;;;;;;;2.85;0.77;;;11.60;97.90;;;;;;4906270;29;20035;-69
2023/06/03 04:11:44;;;;;;;2.50;0.60;;;11.60;97.80;;;;;;4898964;29;20456;-71
2023/06/03 04:14:16;;;;;;;3.42;0.70;;;11.60;97.80;;;;;;4884239;29;20039;-69
2023/06/03 04:16:57;;;;;;;2.58;0.70;;;11.70;97.60;;;;;;4885624;29;20032;-71
2023/06/03 04:19:37;;;;;;;2.58;0.70;;;11.80;97.50;;;;;;4879371;29;20051;-70
2023/06/03 04:22:17;;;;;;;3.65;0.50;;;11.90;97.30;;;;;;4902472;28;20730;-70
2023/06/03 04:24:44;;;;;;;6.47;0.75;;;11.90;97.20;;;;;;4900452;29;20031;-70
2023/06/03 04:27:12;;;;;;;2.25;0.60;;;12.00;97.10;;;;;;4873917;29;20047;-71
2023/06/03 04:29:39;;;;;;;3.03;0.60;;;12.00;97.00;;;;;;4868541;29;20403;-70
2023/06/03 04:32:06;;;;;;;2.00;0.60;;;12.10;96.90;;;;;;4904121;29;20035;-70
2023/06/03 04:34:34;;;;;;;2.30;0.60;;;12.20;96.80;;;;;;4901491;29;20423;-70
2023/06/03 04:37:02;;;;;;;3.70;0.60;;;12.20;96.70;;;;;;4885599;29;20456;-70
2023/06/03 04:39:29;;;;;;;1.75;0.50;;;12.30;96.60;;;;;;4897079;29;20051;-70
2023/06/03 04:41:57;;;;;;;1.42;0.57;;;12.40;96.60;;;;;;4899432;29;20036;-71
2023/06/03 04:44:28;;;;;;;2.03;0.63;;;12.50;96.50;;;;;;4901039;29;20041;-69
2023/06/03 04:46:54;;;;;;;1.80;0.57;;;12.60;96.30;;;;;;4903540;29;20403;-70
2023/06/03 04:49:21;;;;;;;1.20;0.43;;;12.70;96.00;;;;;;4903600;29;20043;-70
2023/06/03 04:51:47;;;;;;;0.95;0.40;;;12.80;95.90;;;;;;4902424;29;20514;-71
2023/06/03 04:54:15;;;;;;;1.52;0.47;;;13.00;95.90;;;;;;4900092;29;20032;-70
2023/06/03 04:56:47;;;;;;;2.13;0.60;;;13.10;95.50;;;;;;4897675;29;20036;-70
2023/06/03 04:59:14;;;;;;;4.55;0.80;;;13.20;95.10;;;;;;4895736;29;20786;-69
2023/06/03 05:01:48;;;;;;;1.83;0.70;;;13.30;94.50;;;;;;4882236;29;20497;-73
2023/06/03 05:04:19;;;;;;;3.03;0.70;;;13.40;94.20;;;;;;4900848;29;20031;-73
2023/06/03 05:06:46;;;;;;;2.22;0.55;;;13.60;93.90;;;;;;4865281;29;20226;-73
2023/06/03 05:09:13;;;;;;;1.40;0.52;;;13.70;93.80;;;;;;4900386;29;20412;-69
2023/06/03 05:11:44;;;;;;;2.55;0.60;;;13.80;93.80;;;;;;4899244;28;22986;-69
2023/06/03 05:14:11;;;;;;;1.33;0.50;;;13.90;93.80;;;;;;4905227;29;21054;-68
2023/06/03 05:16:38;;;;;;;2.72;0.70;;;14.00;93.20;;;;;;4897280;29;20529;-73
2023/06/03 05:19:04;;;;;;;1.77;0.60;;;14.10;92.70;;;;;;4894450;29;20040;-72
2023/06/03 05:21:31;;;;;;;3.03;0.70;;;14.20;92.40;;;;;;4892852;28;20050;-73
2023/06/03 05:23:57;;;;;;;2.33;0.88;;;14.30;92.20;;;;;;4882576;29;20417;-73
2023/06/03 05:26:24;;;;;;;1.73;0.60;;;14.40;92.00;;;;;;4896715;29;20048;-73
2023/06/03 05:28:51;;;;;;;2.15;0.63;;;14.50;91.80;;;;;;4866997;29;20039;-73
2023/06/03 05:31:18;;;;;;;3.25;0.65;;;14.60;91.10;;;;;;4883857;29;20032;-74
2023/06/03 05:33:44;;;;;;;3.38;0.50;;;14.70;91.10;;;;;;4888210;29;20047;-72
2023/06/03 05:36:15;;;;;;;1.70;0.60;;;14.80;91.10;;;;;;4869895;29;20032;-72
2023/06/03 05:38:43;;;;;;;1.80;0.68;;;14.90;90.90;;;;;;4880536;29;20048;-73
2023/06/03 05:41:11;;;;;;;2.72;0.70;;;15.00;90.90;;;;;;4880004;29;20043;-70
2023/06/03 05:43:39;;;;;;;1.50;0.50;;;15.20;90.70;;;;;;4887335;29;20376;-69
2023/06/03 05:46:05;;;;;;;3.35;0.50;;;15.40;90.60;;;;;;4902954;29;20031;-70
2023/06/03 05:48:32;;;;;;;2.08;0.55;;;15.50;90.00;;;;;;4903731;29;20027;-69
2023/06/03 05:50:58;;;;;;;2.53;0.57;;;15.60;88.50;;;;;;4903159;29;20055;-70
2023/06/03 05:53:28;;;;;;;1.75;0.40;;;15.60;88.10;;;;;;4876627;29;20031;-69
2023/06/03 05:55:57;;;;;;;3.50;0.50;;;15.70;87.90;;;;;;4906452;29;20047;-71
2023/06/03 05:58:25;;;;;;;3.17;0.60;;;15.80;87.20;;;;;;4885635;29;20035;-69
2023/06/03 06:00:53;;;;;;;1.23;0.40;;;15.90;86.70;;;;;;4878436;29;20031;-69
2023/06/03 06:03:20;;;;;;;3.00;0.50;;;16.10;86.50;;;;;;4902299;29;20023;-70
2023/06/03 06:05:46;;;;;;;2.65;0.60;;;16.30;85.70;;;;;;4871264;29;22531;-70
2023/06/03 06:08:13;;;;;;;0.98;0.40;;;16.40;85.00;;;;;;4884380;29;20047;-69
2023/06/03 06:10:39;;;;;;;1.02;0.30;;;16.60;84.30;;;;;;4870069;29;20048;-71
2023/06/03 06:13:05;;;;;;;1.42;0.40;;;16.80;83.90;;;;;;4907607;29;20036;-73
2023/06/03 06:15:33;;;;;;;1.40;0.50;;;17.10;83.40;;;;;;4891634;29;20048;-71
2023/06/03 06:18:01;;;;;;;1.35;0.30;;;17.40;82.50;;;;;;4883721;29;20039;-71
2023/06/03 06:20:27;;;;;;;4.03;0.60;;;17.60;81.40;;;;;;4878468;29;20028;-72
2023/06/03 06:22:54;;;;;;;3.17;1.27;;;17.80;80.30;;;;;;4896981;29;20039;-73
2023/06/03 06:25:21;;;;;;;3.10;0.80;;;17.90;79.60;;;;;;4895611;29;20039;-71
2023/06/03 06:27:49;;;;;;;2.78;0.50;;;18.00;79.50;;;;;;4880826;29;20047;-76
2023/06/03 06:30:17;;;;;;;1.73;0.52;;;18.00;78.70;;;;;;4858148;29;20793;-70
2023/06/03 06:32:53;;;;;;;7.35;0.80;;;18.00;78.70;;;;;;4903281;29;20065;-72
2023/06/03 06:35:28;;;;;;;2.50;1.00;;;18.00;77.60;;;;;;4887624;29;20028;-70
2023/06/03 06:37:58;;;;;;;2.28;1.20;;;17.90;77.90;;;;;;4901557;29;20036;-71
2023/06/03 06:40:32;;;;;;;3.97;0.60;;;18.10;78.40;;;;;;4892658;29;20035;-79
2023/06/03 06:42:59;;;;;;;1.98;0.70;;;18.30;77.50;;;;;;4882789;29;20030;-70
2023/06/03 06:45:41;;;;;;;1.42;0.43;;;18.40;77.20;;;;;;4898718;29;20044;-70
2023/06/03 06:48:10;;;;;;;2.25;0.60;;;18.50;76.70;;;;;;4898747;29;20035;-70
2023/06/03 06:50:53;;;;;;;1.75;0.38;;;18.60;76.80;;;;;;4892973;29;20040;-69
2023/06/03 06:53:24;;;;;;;1.45;0.50;;;18.60;76.20;;;;;;4888078;29;20466;-71
2023/06/03 06:56:02;;;;;;;1.10;0.40;;;18.70;76.10;;;;;;4906249;29;20035;-71
2023/06/03 06:58:36;;;;;;;2.58;0.52;;;18.80;76.00;;;;;;4901714;29;20027;-69
2023/06/03 07:01:07;;;;;;;1.52;0.40;;;18.90;74.80;;;;;;4891739;29;20039;-72
2023/06/03 07:03:37;;;;;;;2.42;0.40;;;18.90;74.40;;;;;;4884061;29;20043;-72
2023/06/03 07:06:04;;;;;;;2.30;0.40;;;18.90;74.00;;;;;;4898961;29;20063;-71
2023/06/03 07:08:33;;;;;;;1.63;0.50;;;19.00;74.10;;;;;;4881089;29;20363;-70
2023/06/03 07:11:04;;;;;;;1.38;0.40;;;19.10;73.60;;;;;;4875227;29;20467;-70
2023/06/03 07:13:35;;;;;;;1.88;0.40;;;19.10;73.80;;;;;;4882612;29;20074;-70
2023/06/03 07:16:02;;;;;;;2.67;0.38;;;19.20;73.70;;;;;;4876742;29;20063;-69
2023/06/03 07:18:28;;;;;;;3.08;0.40;;;19.30;74.30;;;;;;4887022;29;20685;-75
2023/06/03 07:20:57;;;;;;;1.85;0.32;;;19.50;74.40;;;;;;4879105;29;20039;-70
2023/06/03 07:23:28;;;;;;;2.47;0.40;;;19.70;74.30;;;;;;4882314;29;20050;-69
2023/06/03 07:25:55;;;;;;;1.17;0.40;;;19.90;73.80;;;;;;4865240;29;20043;-69
2023/06/03 07:28:30;;;;;;;2.65;0.47;;;20.10;73.50;;;;;;4881473;29;20035;-68
2023/06/03 07:31:04;;;;;;;1.48;0.40;;;20.20;72.90;;;;;;4874478;29;20570;-70
2023/06/03 07:33:36;;;;;;;1.25;0.40;;;20.30;71.30;;;;;;4881868;29;20050;-69
2023/06/03 07:36:03;;;;;;;1.75;0.30;;;20.30;70.90;;;;;;4901991;29;20439;-70
2023/06/03 07:38:39;;;;;;;2.05;0.40;;;20.30;71.00;;;;;;4891535;29;20476;-69
2023/06/03 07:41:17;;;;;;;1.45;0.38;;;20.40;70.70;;;;;;4897058;29;20044;-69
2023/06/03 07:43:45;;;;;;;2.28;0.50;;;20.50;70.70;;;;;;4899590;29;20046;-69
2023/06/03 07:46:11;;;;;;;2.05;0.40;;;20.60;70.10;;;;;;4868365;29;20031;-69
2023/06/03 07:48:38;;;;;;;1.20;0.40;;;20.70;69.60;;;;;;4899421;29;20067;-71
2023/06/03 07:51:06;;;;;;;1.17;0.40;;;20.70;69.00;;;;;;4891605;29;20054;-69
2023/06/03 07:53:36;;;;;;;1.27;0.30;;;20.70;69.60;;;;;;4898246;29;20468;-70
2023/06/03 07:56:10;;;;;;;0.75;0.38;;;20.90;68.80;;;;;;4902113;29;20042;-69
2023/06/03 07:58:37;;;;;;;1.33;0.38;;;20.90;68.30;;;;;;4887305;29;20055;-70
2023/06/03 08:01:04;;;;;;;0.90;0.30;;;21.00;68.50;;;;;;4899264;29;20495;-71
2023/06/03 08:03:32;;;;;;;0.68;0.30;;;21.20;67.90;;;;;;4882639;29;20039;-69
2023/06/03 08:05:58;;;;;;;1.10;0.40;;;21.20;67.00;;;;;;4899969;29;24053;-69
2023/06/03 08:08:32;;;;;;;1.85;0.30;;;21.40;67.10;;;;;;4900972;29;20599;-69
2023/06/03 08:11:01;;;;;;;1.77;0.50;;;21.50;66.50;;;;;;4895548;29;20805;-69
2023/06/03 08:13:27;;;;;;;2.80;0.45;;;21.60;65.40;;;;;;4900829;29;20046;-70
2023/06/03 08:15:54;;;;;;;1.35;0.47;;;21.70;64.50;;;;;;4883451;29;20047;-68
2023/06/03 08:18:47;;;;;;;1.73;0.50;;;21.70;64.10;;;;;;4871599;29;20743;-69
2023/06/03 08:21:14;;;;;;;1.23;0.50;;;21.70;63.00;;;;;;4899007;29;20040;-69
2023/06/03 08:23:41;;;;;;;1.25;0.30;;;21.60;63.00;;;;;;4872649;29;20027;-68
2023/06/03 08:26:10;;;;;;;1.17;0.30;;;21.70;62.00;;;;;;4867784;29;20403;-69
2023/06/03 08:28:39;;;;;;;2.67;0.30;;;21.70;62.20;;;;;;4885735;29;20047;-69
2023/06/03 08:31:06;;;;;;;2.47;0.43;;;21.80;61.00;;;;;;4894184;29;20047;-68
2023/06/03 08:33:33;;;;;;;1.15;0.30;;;21.70;59.80;;;;;;4897129;29;20494;-69
2023/06/03 08:35:59;;;;;;;2.58;0.68;;;21.60;60.10;;;;;;4899944;29;20050;-69
2023/06/03 08:38:26;;;;;;;2.20;0.38;;;21.60;60.40;;;;;;4884699;29;20031;-69
2023/06/03 08:40:52;;;;;;;2.88;0.40;;;21.60;60.10;;;;;;4880984;29;20027;-69
2023/06/03 08:43:22;;;;;;;0.77;0.30;;;21.60;59.70;;;;;;4890132;29;20417;-68
2023/06/03 08:46:03;;;;;;;3.63;0.60;;;21.50;59.80;;;;;;4884507;29;20043;-70
2023/06/03 08:48:51;;;;;;;1.35;0.40;;;21.60;58.80;;;;;;4883793;29;20050;-69
2023/06/03 08:51:21;;;;;;;1.00;0.40;;;21.60;58.30;;;;;;4860307;29;20040;-69
2023/06/03 08:53:52;;;;;;;0.63;0.20;;;21.60;58.20;;;;;;4884046;29;20369;-69
2023/06/03 08:56:20;;;;;;;1.67;0.30;;;21.70;58.10;;;;;;4885553;29;21109;-68
2023/06/03 08:59:00;;;;;;;1.13;0.32;;;21.80;58.00;;;;;;4898978;29;20058;-69
2023/06/03 09:01:29;;;;;;;2.90;0.40;;;21.90;57.70;;;;;;4879304;29;20326;-67
2023/06/03 09:03:56;;;;;;;1.73;0.40;;;22.00;57.20;;;;;;4904234;29;20653;-69
2023/06/03 09:06:22;;;;;;;1.48;0.20;;;21.90;55.60;;;;;;4904095;29;20038;-69
2023/06/03 09:08:52;;;;;;;0.80;0.38;;;21.70;56.20;;;;;;4895241;29;20047;-70
2023/06/03 09:11:19;;;;;;;1.17;0.40;;;21.70;56.40;;;;;;4893451;29;20051;-70
2023/06/03 09:13:46;;;;;;;2.15;0.30;;;21.80;54.80;;;;;;4899418;29;20035;-75
2023/06/03 09:16:13;;;;;;;0.40;0.20;;;21.90;55.20;;;;;;4905487;29;20030;-70
2023/06/03 09:18:40;;;;;;;2.42;0.80;;;22.10;55.10;;;;;;4902656;28;20026;-72
2023/06/03 09:21:10;;;;;;;1.80;0.30;;;22.30;53.90;;;;;;4900952;29;20040;-72
2023/06/03 09:23:39;;;;;;;2.13;0.40;;;22.30;52.30;;;;;;4892064;29;20069;-72
2023/06/03 09:26:06;;;;;;;1.55;0.35;;;22.40;51.40;;;;;;4893381;29;20051;-72
2023/06/03 09:28:36;;;;;;;2.50;0.40;;;22.40;52.30;;;;;;4888489;29;20030;-71
2023/06/03 09:31:04;;;;;;;0.50;0.25;;;22.50;52.80;;;;;;4880188;29;22529;-72
2023/06/03 09:33:31;;;;;;;1.55;0.80;;;22.60;53.20;;;;;;4904968;29;20476;-71
2023/06/03 09:36:15;;;;;;;4.15;2.70;;;22.80;52.90;;;;;;4889482;29;20825;-70
2023/06/03 09:38:55;;;;;;;2.63;0.50;;;23.00;52.90;;;;;;4890788;29;20250;-70
2023/06/03 09:41:29;;;;;;;1.13;0.60;;;23.20;52.80;;;;;;4877734;29;20546;-73
2023/06/03 09:43:55;;;;;;;3.00;1.38;;;23.40;51.60;;;;;;4892302;29;20039;-71
2023/06/03 09:46:22;;;;;;;1.00;0.35;;;23.50;51.10;;;;;;4895066;29;20361;-72
2023/06/03 09:48:49;;;;;;;5.93;0.90;;;23.60;50.80;;;;;;4908263;29;20019;-71
2023/06/03 09:51:15;;;;;;;2.00;0.70;;;23.60;50.50;;;;;;4880345;29;20162;-72
2023/06/03 09:53:42;;;;;;;1.08;0.43;;;23.50;50.30;;;;;;4903964;28;20038;-71
2023/06/03 09:56:28;;;;;;;2.65;0.88;;;23.50;50.90;;;;;;4872036;29;20027;-73
2023/06/03 09:59:13;;;;;;;5.20;3.00;;;23.60;50.50;;;;;;4856882;29;20048;-73
2023/06/03 10:01:42;;;;;;;2.35;1.40;;;23.70;49.40;;;;;;4898231;28;20048;-72
2023/06/03 10:04:09;;;;;;;1.90;0.40;;;23.80;49.50;;;;;;4905274;29;20050;-73
2023/06/03 10:06:38;;;;;;;0.80;0.30;;;23.80;48.30;;;;;;4892261;29;20541;-73
2023/06/03 10:09:26;;;;;;;1.00;0.30;;;23.90;48.50;;;;;;4905798;29;20039;-69
2023/06/03 10:11:53;;;;;;;6.95;5.75;;;24.00;48.90;;;;;;4896544;29;20024;-71
2023/06/03 10:14:22;;;;;;;1.80;1.30;;;24.20;49.50;;;;;;4901171;29;20515;-71
2023/06/03 10:17:12;;;;;;;2.67;1.00;;;24.30;49.30;;;;;;4903037;29;20383;-69
2023/06/03 10:19:43;;;;;;;1.65;0.30;;;24.60;49.30;;;;;;4887840;29;20064;-70
2023/06/03 10:22:12;;;;;;;0.60;0.40;;;24.60;48.40;;;;;;4901730;28;20475;-69
2023/06/03 10:24:42;;;;;;;1.50;0.90;;;24.60;47.80;;;;;;4889031;29;20043;-70
2023/06/03 10:27:10;;;;;;;2.40;0.80;;;24.60;47.50;;;;;;4870636;29;20715;-70
2023/06/03 10:29:37;;;;;;;0.63;0.30;;;24.60;47.30;;;;;;4883344;29;20047;-70
2023/06/03 10:32:06;;;;;;;0.80;0.22;;;24.70;47.10;;;;;;4883267;29;20039;-67
2023/06/03 10:34:42;;;;;;;1.25;0.30;;;24.80;46.60;;;;;;4901476;29;20563;-67
2023/06/03 10:37:09;;;;;;;0.68;0.30;;;25.00;47.30;;;;;;4898769;29;20035;-70
2023/06/03 10:39:36;;;;;;;0.60;0.30;;;25.30;46.40;;;;;;4895051;29;21146;-69
2023/06/03 10:42:05;;;;;;;0.68;0.32;;;25.50;46.20;;;;;;4898707;29;21381;-69
2023/06/03 10:44:32;;;;;;;0.47;0.20;;;25.60;46.20;;;;;;4901076;29;20044;-70
2023/06/03 10:47:05;;;;;;;0.57;0.20;;;25.90;46.30;;;;;;4903647;29;20558;-69
2023/06/03 10:49:39;;;;;;;2.03;0.98;;;26.00;45.40;;;;;;4899454;29;21976;-70
2023/06/03 10:52:26;;;;;;;1.55;0.57;;;26.20;45.50;;;;;;4886252;29;20055;-70
2023/06/03 10:55:20;;;;;;;2.85;1.33;;;26.50;44.80;;;;;;4884942;29;20554;-70
2023/06/03 10:57:51;;;;;;;2.17;0.30;;;26.70;45.60;;;;;;4869032;29;20620;-70
2023/06/03 11:00:56;;;;;;;0.70;0.30;;;27.00;43.40;;;;;;4879939;29;20039;-68
2023/06/03 11:03:24;;;;;;;3.42;1.23;;;27.10;43.50;;;;;;4901187;29;20039;-67
2023/06/03 11:05:51;;;;;;;1.27;0.40;;;27.40;43.70;;;;;;4901983;29;20039;-68
2023/06/03 11:08:57;;;;;;;2.10;0.40;;;27.70;42.70;;;;;;4905584;29;20035;-68
2023/06/03 11:11:41;;;;;;;1.98;0.32;;;27.60;41.90;;;;;;4901044;29;21170;-67
2023/06/03 11:14:40;;;;;;;0.60;0.30;;;27.60;42.00;;;;;;4902643;29;20038;-68
2023/06/03 11:17:09;;;;;;;4.57;0.30;;;27.80;42.70;;;;;;4901876;29;20082;-68
2023/06/03 11:19:45;;;;;;;0.80;0.30;;;28.00;42.40;;;;;;4892506;29;20068;-68
2023/06/03 11:22:25;;;;;;;1.95;0.30;;;28.30;42.90;;;;;;4899969;29;20743;-69
2023/06/03 11:24:51;;;;;;;0.77;0.30;;;28.70;42.20;;;;;;4882986;29;20031;-67
2023/06/03 11:27:20;;;;;;;2.38;0.30;;;28.90;42.20;;;;;;4882533;29;20063;-69
2023/06/03 11:29:47;;;;;;;0.80;0.40;;;29.10;41.90;;;;;;4878991;29;20388;-68
2023/06/03 11:32:16;;;;;;;1.77;0.30;;;29.30;41.40;;;;;;4882887;29;20035;-68
2023/06/03 11:34:43;;;;;;;1.45;0.30;;;29.50;40.60;;;;;;4883746;29;20036;-69
2023/06/03 11:37:15;;;;;;;1.17;0.30;;;29.60;40.00;;;;;;4866628;29;20189;-67
2023/06/03 11:40:01;;;;;;;1.25;0.32;;;29.70;39.60;;;;;;4875717;29;20035;-68
2023/06/03 11:42:28;;;;;;;1.45;0.30;;;29.60;39.20;;;;;;4878268;29;20028;-69
2023/06/03 11:45:21;;;;;;;1.60;0.40;;;29.60;39.90;;;;;;4883539;29;20320;-67
2023/06/03 11:47:59;;;;;;;1.23;0.30;;;29.90;40.30;;;;;;4880366;29;20480;-69
2023/06/03 11:50:45;;;;;;;4.20;0.40;;;30.30;40.80;;;;;;4877357;29;20040;-68
2023/06/03 11:53:37;;;;;;;2.78;0.40;;;30.60;39.80;;;;;;4885517;29;20146;-71
2023/06/03 11:56:11;;;;;;;3.60;0.38;;;30.90;39.30;;;;;;4864559;29;20040;-69
2023/06/03 11:58:39;;;;;;;2.05;0.40;;;30.90;39.20;;;;;;4882342;29;20608;-67
2023/06/03 12:01:07;;;;;;;2.63;0.68;;;30.90;39.10;;;;;;4873285;29;20040;-67
2023/06/03 12:03:36;;;;;;;1.92;0.30;;;31.00;39.40;;;;;;4882391;29;20480;-68
2023/06/03 12:06:03;;;;;;;2.10;0.30;;;31.10;39.00;;;;;;4882388;29;20036;-68
2023/06/03 12:08:45;;;;;;;1.15;0.20;;;31.30;39.10;;;;;;4879325;29;20468;-68
2023/06/03 12:11:31;;;;;;;0.85;0.30;;;31.70;39.60;;;;;;4860917;29;20062;-69
2023/06/03 12:13:57;;;;;;;1.73;0.35;;;32.10;38.60;;;;;;4899931;29;20043;-68
2023/06/03 12:16:32;;;;;;;1.40;0.30;;;32.20;37.80;;;;;;4882549;29;20476;-68
2023/06/03 12:19:03;;;;;;;1.92;0.30;;;32.40;38.50;;;;;;4881499;29;20024;-68
2023/06/03 12:21:31;;;;;;;3.33;0.30;;;32.60;37.30;;;;;;4874730;29;20627;-69
2023/06/03 12:23:57;;;;;;;1.38;0.25;;;32.70;37.00;;;;;;4880148;29;20036;-68
2023/06/03 12:26:25;;;;;;;0.65;0.30;;;32.90;37.30;;;;;;4864551;29;20070;-68
2023/06/03 12:28:53;;;;;;;0.68;0.35;;;33.30;37.40;;;;;;4879946;29;20032;-67
2023/06/03 12:31:20;;;;;;;0.70;0.30;;;33.40;36.30;;;;;;4889540;29;20385;-68
2023/06/03 12:33:46;;;;;;;1.42;0.30;;;33.30;35.50;;;;;;4886732;29;20047;-69
2023/06/03 12:36:13;;;;;;;1.90;0.30;;;33.30;35.80;;;;;;4883698;29;20310;-69
2023/06/03 12:38:57;;;;;;;0.93;0.30;;;33.50;36.10;;;;;;4881576;29;20352;-69
2023/06/03 12:41:24;;;;;;;0.47;0.20;;;33.50;35.00;;;;;;4870327;29;20044;-70
2023/06/03 12:44:04;;;;;;;1.50;0.30;;;33.30;34.80;;;;;;4878608;29;20036;-68
2023/06/03 12:46:30;;;;;;;1.60;0.30;;;33.30;35.20;;;;;;4880522;29;20040;-68
2023/06/03 12:49:15;;;;;;;0.80;0.20;;;33.30;35.30;;;;;;4875114;29;20047;-69
2023/06/03 12:51:42;;;;;;;0.70;0.30;;;33.50;35.10;;;;;;4860480;29;20036;-69
2023/06/03 12:54:08;;;;;;;1.98;0.57;;;33.60;34.40;;;;;;4884027;29;20036;-70
2023/06/03 12:56:34;;;;;;;1.88;0.30;;;33.30;34.60;;;;;;4884576;29;20724;-68
2023/06/03 12:59:01;;;;;;;1.00;0.30;;;33.00;34.50;;;;;;4882202;29;20416;-72
2023/06/03 13:01:27;;;;;;;1.23;0.55;;;33.00;35.00;;;;;;4868423;29;20028;-70
2023/06/03 13:03:56;;;;;;;4.07;3.40;;;33.00;33.60;;;;;;4891859;29;20040;-70